TAF KLBF
KLBF 072320Z 0800/0824 VRB06KT P6SM SCT250 FM081500 25005KT P6SM FEW250 FM082000 15011KT P6SM BKN200=
METAR KLBF
WC KLBF
WS KLBF
WV KLBF